Weather observations for the past three days for
Denison
Imperial (Metric)
Date Time (cdt) Wind (mph) Vis. (mi.) Weather Sky Cond. Temperature (ºF) Relative Humidity Wind Chill (°F) Heat Index (°F) Pressure Precipitation (in)
Air Dwpt 6 hour altimeter (in) sea level (mb) 1 hr 3 hr 6 hr
Max. Min.
06 05:15 Calm 0.00 NULL NULL 32 32 100% 30.03 0.0
06 04:55 Calm 0.00 NULL NULL 32 32 100% 30.03 0.0
06 04:35 Calm 0.00 NULL NULL 32 32 100% 30.02 0.0
06 04:15 Calm 0.00 NULL NULL 33.8 33.8 100% 30.02 0.0
06 03:55 Calm 0.00 NULL NULL 33.8 33.8 100% 30.01 0.0
06 03:35 Calm 0.00 NULL NULL 35.6 33.8 93% 30.01 0.0
06 03:15 Calm 0.00 NULL NULL 35.6 32 87% 30.01 0.0
06 02:55 Calm 0.00 Fair CLR 35.6 32 87% 30.01 0.0
06 02:35 Calm 0.00 Fair CLR 35.6 32 87% 30 0.0
06 02:15 Calm 0.00 Fair CLR 35.6 30.2 81% 30 0.0
06 01:55 Calm 0.00 Fair CLR 35.6 30.2 81% 30 0.0
06 01:35 Calm 0.00 Fair CLR 37.4 26.6 65% 30 0.0
06 01:15 Calm 0.00 Fair CLR 37.4 26.6 65% 30 0.0
06 00:55 N 3 0.00 Fair CLR 39.2 23 52% 30 0.0
06 00:35 N 3 0.00 Fair CLR 41 23 49% 29.99 0.0
06 00:15 Calm 0.00 Fair CLR 41 23 49% 29.98 0.0
05 23:55 N 5 0.00 Fair CLR 42.8 23 46% 41 29.98 0.0
05 23:35 N 5 0.00 Fair CLR 42.8 23 46% 41 29.98 0.0
05 23:15 N 3 0.00 Fair CLR 42.8 23 46% 29.98 0.0
05 22:55 N 7 0.00 Fair CLR 44.6 23 43% 41 29.97 0.0
05 22:35 N 7 0.00 Fair CLR 44.6 23 43% 41 29.97 0.0
05 22:15 N 7 0.00 Fair CLR 44.6 23 43% 41 29.96 0.0
05 21:55 N 7 0.00 Fair CLR 44.6 23 43% 41 29.95 0.0
05 21:35 NW 8 0.00 Fair CLR 46.4 23 40% 43 29.95 0.0
05 21:15 NW 9 0.00 Fair CLR 46.4 21.2 37% 42 29.94 0.0
05 20:35 NW 10 0.00 Fair CLR 48.2 21.2 34% 44 29.92 0.0
05 20:15 NW 12 G 17 0.00 Fair CLR 50 21.2 32% 46 29.92 0.0
05 19:55 NW 14 G 21 0.00 Fair CLR 50 21.2 32% 45 29.92 0.0
05 19:35 NW 16 G 22 0.00 Fair CLR 51.8 21.2 30% 29.91 0.0
05 19:15 N 16 0.00 Fair CLR 51.8 23 32% 29.9 0.0
05 18:55 NW 15 G 22 0.00 Fair CLR 51.8 23 32% 29.9 0.0
05 18:35 NW 14 G 21 0.00 A Few Clouds FEW075 53.6 23 30% 29.9 0.0
05 18:15 NW 15 G 23 0.00 A Few Clouds FEW075 53.6 23 30% 29.9 0.0
05 17:55 W 15 G 22 0.00 Fair CLR 53.6 23 30% 29.89 0.0
05 17:35 NW 15 G 24 0.00 Fair CLR 53.6 23 30% 29.89 0.0
05 17:15 NW 17 G 28 0.00 Fair CLR 53.6 24.8 33% 29.89 0.0
05 16:55 NW 21 G 28 0.00 Fair and Breezy CLR 53.6 24.8 33% 29.89 0.0
05 16:35 NW 18 G 25 0.00 Fair CLR 53.6 24.8 33% 29.89 0.0
05 16:15 NW 21 G 26 0.00 A Few Clouds and Breezy FEW070 55.4 26.6 33% 29.89 0.0
05 15:55 NW 20 G 28 0.00 Partly Cloudy SCT070 55.4 26.6 33% 29.9 0.0
05 15:35 W 15 0.00 Fair CLR 55.4 26.6 33% 29.9 0.0
05 15:15 NW 16 G 25 0.00 Fair CLR 55.4 26.6 33% 29.9 0.0
05 14:55 NW 16 G 26 0.00 A Few Clouds FEW070 57.2 26.6 31% 29.91 0.0
05 14:35 NW 21 0.00 Fair and Breezy CLR 55.4 26.6 33% 29.91 0.0
05 14:15 NW 15 G 23 0.00 Fair CLR 55.4 26.6 33% 29.91 0.0
05 13:55 NW 16 G 25 0.00 Fair CLR 55.4 26.6 33% 29.92 0.0
05 13:35 NW 16 G 24 0.00 A Few Clouds FEW070 55.4 26.6 33% 29.92 0.0
05 13:15 NW 14 G 23 0.00 A Few Clouds FEW070 55.4 26.6 33% 29.92 0.0
05 12:55 N 15 G 24 0.00 Fair CLR 55.4 26.6 33% 29.92 0.0
05 12:35 NW 9 G 20 0.00 Fair CLR 55.4 28.4 36% 29.92 0.0
05 12:15 NW 13 G 20 0.00 Fair CLR 55.4 26.6 33% 29.92 0.0
05 11:55 N 13 G 21 0.00 Fair CLR 55.4 28.4 36% 29.92 0.0
05 11:35 N 15 0.00 Fair CLR 55.4 28.4 36% 29.92 0.0
05 11:15 NW 14 0.00 A Few Clouds FEW060 53.6 26.6 35% 29.92 0.0
05 10:35 NW 12 0.00 Fair CLR 53.6 26.6 35% 29.92 0.0
05 10:15 NW 7 G 14 0.00 Fair CLR 53.6 26.6 35% 29.92 0.0
05 09:55 Vrbl 7 0.00 Fair CLR 53.6 28.4 38% 29.92 0.0
05 09:35 Calm 6.00 Fair with Haze CLR 50 28.4 43% 29.92 0.0
05 09:15 NE 9 5.00 Fair with Haze CLR 51.8 28.4 41% 29.91 0.0
05 08:55 N 7 7.00 Fair CLR 51.8 30.2 44% 29.91 0.0
05 08:35 N 7 6.00 Fair with Haze CLR 50 32 50% 48 29.9 0.0
05 08:15 N 6 5.00 Fair with Haze CLR 48.2 32 54% 46 29.89 0.0
05 07:55 NE 6 5.00 Fair with Haze CLR 44.6 33.8 66% 42 29.87 0.0
05 07:35 NE 8 5.00 Fair with Haze CLR 44.6 32 61% 41 29.87 0.0
05 07:15 NE 6 5.00 Fair with Haze CLR 42.8 33.8 71% 40 29.87 0.0
05 06:55 N 5 5.00 Fair with Haze CLR 42.8 32 66% 41 29.86 0.0
05 06:35 N 5 6.00 Fair with Haze CLR 42.8 32 66% 41 29.85 0.0
05 06:15 Calm 7.00 Fair CLR 42.8 33.8 71% 29.86 0.0
05 05:55 W 3 8.00 Fair CLR 42.8 33.8 71% 29.86 0.0
05 05:35 Calm 7.00 Fair CLR 42.8 33.8 71% 29.85 0.0
05 05:15 W 3 7.00 Fair CLR 42.8 33.8 71% 29.84 0.0
05 04:55 W 5 8.00 Fair CLR 42.8 32 66% 41 29.83 0.0
05 04:35 NW 7 7.00 Fair CLR 42.8 33.8 71% 39 29.82 0.0
05 04:15 NW 6 7.00 Fair CLR 44.6 32 61% 42 29.82 0.0
05 03:55 NW 5 7.00 Fair CLR 42.8 33.8 71% 41 29.82 0.0
05 03:35 NW 5 7.00 Fair CLR 44.6 33.8 66% 43 29.81 0.0
05 03:15 Calm 7.00 Fair CLR 46.4 33.8 62% 29.8 0.0
05 02:55 Calm 7.00 Fair CLR 46.4 32 57% 29.8 0.0
05 02:35 Calm 7.00 Fair CLR 46.4 32 57% 29.8 0.0
05 02:15 Calm 7.00 Fair CLR 48.2 32 54% 29.8 0.0
05 01:55 Calm 7.00 A Few Clouds FEW110 48.2 33.8 58% 29.79 0.0
05 01:35 Calm 8.00 Partly Cloudy FEW075 SCT100 48.2 33.8 58% 29.81 0.0
05 01:15 NW 3 8.00 Overcast SCT075 OVC100 50 33.8 54% 29.8 0.0
05 00:55 NW 5 7.00 Overcast OVC110 50 32 50% 49 29.82 0.0
05 00:35 N 6 7.00 Overcast FEW065 BKN100 OVC110 51.8 32 47% 29.8 0.0
05 00:15 N 6 7.00 Overcast FEW060 SCT070 OVC100 51.8 32 47% 29.79 0.0
04 23:55 N 7 7.00 Overcast SCT055 BKN065 OVC090 51.8 30.2 44% 29.81 0.0
04 23:35 N 10 7.00 Mostly Cloudy FEW046 SCT055 BKN075 51.8 32 47% 29.8 0.0
04 23:15 NW 8 G 14 7.00 Overcast SCT065 BKN080 OVC095 51.8 32 47% 29.82 0.0
04 22:55 N 10 G 17 7.00 Overcast SCT060 OVC075 51.8 32 47% 29.79 0.0
04 22:35 N 10 G 16 6.00 Light Rain FEW050 BKN065 OVC075 51.8 33.8 50% 29.78 0.0
04 22:15 N 10 G 17 5.00 Rain FEW048 SCT055 BKN065 51.8 37.4 58% 29.79 0.0
04 21:55 N 13 7.00 Overcast SCT049 BKN075 OVC090 53.6 33.8 47% 29.8 0.0
04 21:35 NW 12 7.00 Overcast FEW043 SCT075 OVC095 53.6 33.8 47% 29.78 0.0
04 21:15 N 18 6.00 Mostly Cloudy with Haze FEW042 SCT065 BKN075 53.6 33.8 47% 29.77 0.0
04 20:55 N 12 6.00 Mostly Cloudy with Haze FEW041 SCT065 BKN080 55.4 32 41% 29.78 0.0
04 20:35 N 13 G 20 6.00 Mostly Cloudy with Haze SCT065 BKN080 BKN120 55.4 30.2 38% 29.76 0.0
04 20:15 NW 20 G 28 6.00 A Few Clouds with Haze FEW075 FEW085 FEW120 55.4 32 41% 29.79 0.0
04 19:55 NW 15 G 23 5.00 A Few Clouds with Haze FEW050 FEW070 55.4 33.8 44% 29.77 0.0
04 19:35 NW 18 G 28 5.00 Fair with Haze CLR 57.2 32 39% 29.74 0.0
04 19:15 N 20 G 30 4.00 Fair with Haze CLR 57.2 32 39% 29.72 0.0
04 18:55 N 24 G 33 5.00 Fair with Haze and Breezy CLR 59 32 36% 29.72 0.0
04 18:35 N 14 G 26 5.00 Fair with Haze CLR 62.6 32 32% 29.69 0.0
04 18:15 N 23 G 39 5.00 Fair with Haze and Breezy CLR 64.4 33.8 32% 29.69 0.0
04 17:55 N 24 G 32 5.00 Fair with Haze and Breezy CLR 68 35.6 30% 29.68 0.0
04 17:35 N 23 G 31 5.00 Fair with Haze and Breezy CLR 69.8 35.6 29% 29.67 0.0
04 17:15 N 24 G 33 5.00 Fair with Haze and Breezy CLR 69.8 35.6 29% 29.66 0.0
04 16:55 NW 20 G 31 4.00 Fair with Haze CLR 71.6 35.6 27% 29.65 0.0
04 16:35 N 17 G 28 5.00 Fair with Haze CLR 71.6 37.4 29% 29.65 0.0
04 16:15 N 20 4.00 Fair with Haze CLR 71.6 37.4 29% 29.63 0.0
04 15:55 N 18 G 24 5.00 Fair with Haze CLR 73.4 37.4 27% 29.63 0.0
04 15:35 N 16 G 24 5.00 Fair with Haze CLR 73.4 37.4 27% 29.62 0.0
04 15:15 N 17 G 26 5.00 Fair with Haze CLR 73.4 37.4 27% 29.62 0.0
04 14:55 NW 22 5.00 Fair with Haze and Breezy CLR 75.2 39.2 27% 77 29.62 0.0
04 14:35 N 18 G 25 4.00 Fair with Haze CLR 75.2 41 29% 77 29.61 0.0
04 14:15 N 14 G 25 5.00 Fair with Haze CLR 75.2 42.8 31% 77 29.61 0.0
04 13:55 N 21 G 29 5.00 Fair with Haze and Breezy CLR 75.2 42.8 31% 77 29.6 0.0
04 13:35 N 18 5.00 Fair with Haze CLR 75.2 46.4 36% 77 29.6 0.0
04 13:15 NW 18 5.00 Fair with Haze CLR 75.2 46.4 36% 77 29.6 0.0
04 12:55 N 17 6.00 Fair with Haze CLR 75.2 46.4 36% 77 29.59 0.0
04 12:35 NW 17 G 24 5.00 Fair with Haze CLR 75.2 46.4 36% 77 29.59 0.0
04 12:15 NW 20 G 25 5.00 Fair with Haze CLR 77 44.6 32% 78 29.59 0.0
04 11:55 W 14 G 23 6.00 Fair with Haze CLR 75.2 42.8 31% 77 29.59 0.0
04 11:35 W 13 G 22 5.00 Fair with Haze CLR 75.2 42.8 31% 77 29.59 0.0
04 11:15 W 17 G 23 5.00 Fair with Haze CLR 73.4 42.8 33% 29.58 0.0
04 10:55 W 15 G 25 5.00 Fair with Haze CLR 73.4 42.8 33% 29.58 0.0
04 10:35 W 10 G 17 5.00 Fair with Haze CLR 71.6 42.8 36% 29.59 0.0
04 10:15 SW 10 5.00 Fair with Haze CLR 68 44.6 43% 29.59 0.0
04 09:55 Vrbl 6 4.00 Fair with Haze CLR 66.2 44.6 46% 29.59 0.0
04 09:35 SW 8 5.00 Fair with Haze CLR 64.4 44.6 49% 29.6 0.0
04 09:15 SW 8 5.00 Fair with Haze CLR 62.6 44.6 52% 29.6 0.0
04 08:55 SW 6 5.00 Fair with Haze CLR 59 44.6 59% 29.61 0.0
04 08:35 SW 5 4.00 Fair with Haze CLR 57.2 44.6 63% 29.61 0.0
04 08:15 W 3 4.00 Fair with Haze CLR 53.6 44.6 72% 29.61 0.0
04 07:55 Calm 4.00 Fair with Haze CLR 51.8 46.4 82% 29.6 0.0
04 07:35 S 3 6.00 A Few Clouds with Haze FEW100 51.8 44.6 77% 29.6 0.0
04 06:55 Calm 5.00 Fog/Mist CLR 46.4 42.8 87% 29.61 0.0
04 06:35 Calm 5.00 Fog/Mist CLR 46.4 44.6 93% 29.61 0.0
04 06:15 Calm 7.00 Fair CLR 44.6 44.6 100% 29.61 0.0
04 05:55 Calm 7.00 Fair CLR 42.8 42.8 100% 29.6 0.0
04 05:35 Calm 7.00 A Few Clouds FEW110 44.6 42.8 93% 29.61 0.0
04 05:15 Calm 7.00 A Few Clouds FEW120 44.6 42.8 93% 29.61 0.0
04 04:55 Calm 7.00 Mostly Cloudy BKN120 46.4 42.8 87% 29.63 0.0
04 04:15 Calm 7.00 Fair CLR 48.2 41 76% 29.63 0.0
04 03:55 Calm 7.00 Fair CLR 48.2 41 76% 29.64 0.0
04 03:35 Calm 7.00 Fair CLR 48.2 41 76% 29.65 0.0
04 03:15 Calm 7.00 Fair CLR 44.6 42.8 93% 29.65 0.0
04 02:55 SE 3 7.00 Fair CLR 44.6 42.8 93% 29.65 0.0
04 02:35 Calm 7.00 Fair CLR 46.4 42.8 87% 29.66 0.0
04 02:15 SE 3 7.00 Fair CLR 44.6 44.6 100% 29.67 0.0
04 01:55 Calm 7.00 Fair CLR 46.4 42.8 87% 29.69 0.0
04 01:35 Calm 7.00 Fair CLR 46.4 44.6 93% 29.7 0.0
04 01:15 Calm 7.00 Fair CLR 44.6 44.6 100% 29.71 0.0
04 00:55 SE 3 7.00 Fair CLR 44.6 44.6 100% 29.72 0.0
04 00:35 SE 5 6.00 Fog/Mist CLR 44.6 44.6 100% 43 29.72 0.0
04 00:15 Calm 7.00 Fair CLR 46.4 42.8 87% 29.73 0.0
03 23:55 SE 3 7.00 Fair CLR 48.2 42.8 82% 29.73 0.0
03 23:35 E 3 7.00 Fair CLR 48.2 42.8 82% 29.74 0.0
03 23:15 SE 5 7.00 Fair CLR 48.2 42.8 82% 47 29.74 0.0
03 22:55 SE 5 6.00 Fair with Haze CLR 48.2 42.8 82% 47 29.75 0.0
03 22:35 E 6 6.00 Fair with Haze CLR 50 42.8 76% 48 29.76 0.0
03 22:15 E 5 7.00 Fair CLR 51.8 41 67% 29.76 0.0
03 21:55 E 5 7.00 Fair CLR 53.6 41 63% 29.76 0.0
03 21:35 SE 5 8.00 Fair CLR 53.6 42.8 67% 29.77 0.0
03 21:15 SE 3 8.00 Fair CLR 57.2 41 55% 29.77 0.0
03 20:55 Calm 6.00 Fair with Haze CLR 59 41 51% 29.77 0.0
03 20:35 Calm 6.00 Fair with Haze CLR 62.6 39.2 42% 29.77 0.0
03 20:15 W 3 5.00 Fair with Haze CLR 66.2 37.4 35% 29.77 0.0
03 19:55 W 3 4.00 Fair with Haze CLR 68 39.2 35% 29.77 0.0
03 19:35 NW 5 3.00 Fair with Haze CLR 69.8 39.2 33% 29.77 0.0
03 19:15 Calm 4.00 Fair with Haze CLR 69.8 37.4 31% 29.77 0.0
03 18:55 NW 5 5.00 Fair with Haze CLR 71.6 37.4 29% 29.78 0.0
03 18:35 NW 12 G 17 5.00 Fair with Haze CLR 71.6 37.4 29% 29.78 0.0
03 18:15 NW 5 G 14 5.00 Fair with Haze CLR 71.6 37.4 29% 29.78 0.0
03 17:55 W 8 6.00 Fair with Haze CLR 71.6 35.6 27% 29.79 0.0
03 17:35 NW 9 10.00 Fair CLR 71.6 35.6 27% 29.79 0.0
03 17:15 NW 15 10.00 Fair CLR 71.6 35.6 27% 29.79 0.0
03 16:55 W 6 G 16 10.00 Fair CLR 71.6 35.6 27% 29.79 0.0
03 16:35 NW 14 G 20 9.00 Fair CLR 73.4 35.6 25% 29.8 0.0
03 16:15 N 10 G 18 10.00 Fair CLR 71.6 35.6 27% 29.81 0.0
03 15:55 NW 17 10.00 Fair CLR 71.6 35.6 27% 29.81 0.0
03 15:35 NW 15 10.00 Fair CLR 71.6 35.6 27% 29.82 0.0
03 15:15 N 9 G 20 10.00 Fair CLR 73.4 35.6 25% 29.82 0.0
03 14:55 NW 13 G 23 4.00 Fair with Haze CLR 73.4 35.6 25% 29.83 0.0
03 14:35 NW 14 G 22 4.00 Fair with Haze CLR 71.6 33.8 25% 29.83 0.0
03 14:15 NW 20 G 26 5.00 Fair with Haze CLR 71.6 33.8 25% 29.83 0.0
03 13:55 NW 17 G 25 5.00 Fair with Haze CLR 71.6 33.8 25% 29.84 0.0
03 13:35 NW 14 G 22 6.00 Fair with Haze CLR 71.6 33.8 25% 29.84 0.0
03 13:15 NW 16 G 23 5.00 Fair with Haze CLR 71.6 35.6 27% 29.85 0.0
03 12:55 N 10 G 21 5.00 Fair with Haze CLR 69.8 37.4 31% 29.85 0.0
03 12:35 NW 14 G 22 6.00 Fair with Haze CLR 68 35.6 30% 29.86 0.0
03 12:15 NW 17 6.00 Fair with Haze CLR 66.2 33.8 30% 29.86 0.0
03 11:55 NW 12 G 24 5.00 Fair with Haze CLR 66.2 35.6 32% 29.86 0.0
03 11:35 N 13 G 21 5.00 Fair with Haze CLR 68 37.4 33% 29.86 0.0
03 11:15 N 13 G 21 6.00 Fair with Haze CLR 66.2 37.4 35% 29.86 0.0
03 10:55 N 16 G 22 5.00 Fair with Haze CLR 66.2 37.4 35% 29.84 0.0
03 10:35 N 17 5.00 Fair with Haze CLR 64.4 37.4 37% 29.85 0.0
03 10:15 N 17 G 24 5.00 Fair with Haze CLR 66.2 37.4 35% 29.84 0.0
03 09:55 N 14 G 21 5.00 Fair with Haze CLR 64.4 37.4 37% 29.86 0.0
03 09:35 N 12 4.00 Fair with Haze CLR 64.4 37.4 37% 29.85 0.0
03 09:15 N 6 G 13 5.00 Fair with Haze CLR 62.6 39.2 42% 29.85 0.0
03 08:55 NW 7 5.00 Fair with Haze CLR 60.8 39.2 45% 29.84 0.0
03 08:35 NW 9 6.00 Fair with Haze CLR 59 39.2 48% 29.84 0.0
03 08:15 NW 9 G 16 5.00 Fair with Haze CLR 57.2 39.2 51% 29.84 0.0
03 07:35 SW 6 6.00 Fair with Haze CLR 51.8 37.4 58% 29.83 0.0
03 07:15 SW 7 5.00 Fair with Haze CLR 50 35.6 58% 48 29.81 0.0
03 06:55 SW 7 5.00 Fair with Haze CLR 48.2 33.8 58% 46 29.81 0.0
03 06:35 SW 5 6.00 Fair with Haze CLR 48.2 33.8 58% 47 29.81 0.0
03 06:15 SW 7 7.00 A Few Clouds FEW016 FEW021 50 33.8 54% 48 29.81 0.0
03 05:35 S 10 7.00 A Few Clouds FEW017 48.2 33.8 58% 44 29.81 0.0
Date Time (cdt) Wind (mph) Vis. (mi.) Weather Sky Cond. Air Dwpt Max. Min. Relative Humidity Wind Chill (°F) Heat Index (°F) altimeter (in) sea level (mb) 1 hr 3 hr 6 hr
6 hour
Temperature (ºF) Pressure Precipitation (in)